Terminal Aerodrome Forecast
Issued by NWS Brownsville, TX

Home | Current Version | Previous Version | Text Only | Print | Product List | Glossary On
Versions: 1 2 3 4 5 6 7 8 9 10 11 12 13 14 15 16 17 18 19 20
663
FTUS44 KBRO 202329
TAFBRO
TAF
KBRO 202329Z 2100/2124 29005KT P6SM OVC250
     FM210300 15003KT 4SM BR SKC
     FM210600 18007KT 1/4SM FG VV001
     FM211500 22008KT P6SM SKC
     FM212100 15008KT P6SM SKC=

USA.gov is the U.S. government's official web portal to all federal, state and local government web resources and services.